sensor_id;sensor_type;location;lat;lon;timestamp;pressure;altitude;pressure_sealevel;temperature;humidity
78825;BME280;68176;45.554;10.220;2023-04-01T00:01:15;98723.50;;;14.99;50.53
78825;BME280;68176;45.554;10.220;2023-04-01T00:03:45;98721.88;;;14.98;50.77
78825;BME280;68176;45.554;10.220;2023-04-01T00:06:16;98734.06;;;14.99;50.75
78825;BME280;68176;45.554;10.220;2023-04-01T00:08:45;98731.59;;;14.97;50.44
78825;BME280;68176;45.554;10.220;2023-04-01T00:11:16;98727.16;;;14.98;50.73
78825;BME280;68176;45.554;10.220;2023-04-01T00:13:45;98720.25;;;14.97;50.55
78825;BME280;68176;45.554;10.220;2023-04-01T00:16:16;98715.75;;;14.97;50.56
78825;BME280;68176;45.554;10.220;2023-04-01T00:18:46;98709.69;;;14.97;50.48
78825;BME280;68176;45.554;10.220;2023-04-01T00:21:16;98713.31;;;14.95;50.47
78825;BME280;68176;45.554;10.220;2023-04-01T00:23:46;98715.97;;;14.95;50.78
78825;BME280;68176;45.554;10.220;2023-04-01T00:26:15;98717.78;;;14.95;50.51
78825;BME280;68176;45.554;10.220;2023-04-01T00:28:45;98706.41;;;14.94;50.56
78825;BME280;68176;45.554;10.220;2023-04-01T00:31:16;98711.69;;;14.94;50.41
78825;BME280;68176;45.554;10.220;2023-04-01T00:33:45;98714.53;;;14.93;50.34
78825;BME280;68176;45.554;10.220;2023-04-01T00:36:16;98723.00;;;14.88;50.68
78825;BME280;68176;45.554;10.220;2023-04-01T00:38:46;98731.56;;;14.90;50.72
78825;BME280;68176;45.554;10.220;2023-04-01T00:41:16;98739.28;;;14.92;50.51
78825;BME280;68176;45.554;10.220;2023-04-01T00:43:48;98729.72;;;14.91;50.68
78825;BME280;68176;45.554;10.220;2023-04-01T00:46:15;98726.47;;;14.89;50.42
78825;BME280;68176;45.554;10.220;2023-04-01T00:48:52;98721.00;;;14.90;50.50
78825;BME280;68176;45.554;10.220;2023-04-01T00:51:22;98727.00;;;14.84;50.57
78825;BME280;68176;45.554;10.220;2023-04-01T00:53:51;98736.78;;;14.84;50.69
78825;BME280;68176;45.554;10.220;2023-04-01T00:57:05;98727.38;;;14.81;50.62
78825;BME280;68176;45.554;10.220;2023-04-01T00:59:35;98720.47;;;14.80;50.73
78825;BME280;68176;45.554;10.220;2023-04-01T01:02:04;98721.31;;;14.81;50.79
78825;BME280;68176;45.554;10.220;2023-04-01T01:04:34;98728.41;;;14.80;50.67
78825;BME280;68176;45.554;10.220;2023-04-01T01:10:07;98714.75;;;14.77;50.72
78825;BME280;68176;45.554;10.220;2023-04-01T01:12:45;98710.66;;;14.74;50.55
78825;BME280;68176;45.554;10.220;2023-04-01T01:15:20;98715.94;;;14.74;50.76
78825;BME280;68176;45.554;10.220;2023-04-01T01:31:55;98715.06;;;14.67;50.76
78825;BME280;68176;45.554;10.220;2023-04-01T01:34:31;98713.41;;;14.66;50.61
78825;BME280;68176;45.554;10.220;2023-04-01T01:37:09;98713.41;;;14.66;50.39
78825;BME280;68176;45.554;10.220;2023-04-01T01:39:37;98708.31;;;14.65;50.59
78825;BME280;68176;45.554;10.220;2023-04-01T01:42:06;98710.16;;;14.64;50.70
78825;BME280;68176;45.554;10.220;2023-04-01T01:44:33;98721.69;;;14.63;50.94
78825;BME280;68176;45.554;10.220;2023-04-01T01:47:00;98716.88;;;14.67;50.56
78825;BME280;68176;45.554;10.220;2023-04-01T01:49:32;98712.41;;;14.67;50.58
78825;BME280;68176;45.554;10.220;2023-04-01T01:52:00;98707.13;;;14.67;50.55
78825;BME280;68176;45.554;10.220;2023-04-01T01:54:30;98702.84;;;14.66;50.35
78825;BME280;68176;45.554;10.220;2023-04-01T01:57:06;98705.50;;;14.66;50.25
78825;BME280;68176;45.554;10.220;2023-04-01T01:59:35;98714.81;;;14.62;50.39
78825;BME280;68176;45.554;10.220;2023-04-01T02:02:03;98718.59;;;14.60;50.63
78825;BME280;68176;45.554;10.220;2023-04-01T02:04:35;98721.06;;;14.61;50.36
78825;BME280;68176;45.554;10.220;2023-04-01T02:07:03;98709.69;;;14.61;50.63
78825;BME280;68176;45.554;10.220;2023-04-01T02:09:30;98721.69;;;14.63;50.53
78825;BME280;68176;45.554;10.220;2023-04-01T02:12:06;98715.41;;;14.64;50.39
78825;BME280;68176;45.554;10.220;2023-04-01T02:14:52;98722.06;;;14.60;50.59
78825;BME280;68176;45.554;10.220;2023-04-01T02:17:23;98718.81;;;14.58;50.37
78825;BME280;68176;45.554;10.220;2023-04-01T02:20:01;98716.16;;;14.58;50.56
78825;BME280;68176;45.554;10.220;2023-04-01T02:22:32;98722.44;;;14.57;50.63
78825;BME280;68176;45.554;10.220;2023-04-01T02:25:02;98733.00;;;14.57;50.40
78825;BME280;68176;45.554;10.220;2023-04-01T02:27:30;98733.19;;;14.56;50.56
78825;BME280;68176;45.554;10.220;2023-04-01T02:29:56;98744.72;;;14.55;50.83
78825;BME280;68176;45.554;10.220;2023-04-01T02:32:25;98753.09;;;14.58;50.46
78825;BME280;68176;45.554;10.220;2023-04-01T02:34:54;98753.19;;;14.50;50.49
78825;BME280;68176;45.554;10.220;2023-04-01T02:37:24;98740.47;;;14.39;50.34
78825;BME280;68176;45.554;10.220;2023-04-01T02:39:53;98759.84;;;14.46;50.52
78825;BME280;68176;45.554;10.220;2023-04-01T02:42:23;98755.47;;;14.53;50.28
78825;BME280;68176;45.554;10.220;2023-04-01T02:44:53;98750.19;;;14.53;50.22
78825;BME280;68176;45.554;10.220;2023-04-01T02:47:23;98727.28;;;14.39;50.35
78825;BME280;68176;45.554;10.220;2023-04-01T02:49:53;98748.94;;;14.49;50.52
78825;BME280;68176;45.554;10.220;2023-04-01T02:52:28;98745.28;;;14.50;50.22
78825;BME280;68176;45.554;10.220;2023-04-01T02:54:54;98748.56;;;14.52;50.35
78825;BME280;68176;45.554;10.220;2023-04-01T02:57:24;98735.47;;;14.44;50.21
78825;BME280;68176;45.554;10.220;2023-04-01T02:59:53;98751.28;;;14.44;50.18
78825;BME280;68176;45.554;10.220;2023-04-01T03:02:23;98752.81;;;14.53;50.22
78825;BME280;68176;45.554;10.220;2023-04-01T03:04:54;98745.03;;;14.45;50.41
78825;BME280;68176;45.554;10.220;2023-04-01T03:07:23;98752.66;;;14.55;50.09
78825;BME280;68176;45.554;10.220;2023-04-01T03:09:54;98740.38;;;14.47;50.03
78825;BME280;68176;45.554;10.220;2023-04-01T03:12:23;98756.03;;;14.49;50.34
78825;BME280;68176;45.554;10.220;2023-04-01T03:14:54;98758.66;;;14.49;50.17
78825;BME280;68176;45.554;10.220;2023-04-01T03:17:24;98761.84;;;14.44;50.06
78825;BME280;68176;45.554;10.220;2023-04-01T03:19:54;98780.97;;;14.46;50.22
78825;BME280;68176;45.554;10.220;2023-04-01T03:22:24;98763.22;;;14.40;50.07
78825;BME280;68176;45.554;10.220;2023-04-01T03:24:54;98774.41;;;14.42;49.94
78825;BME280;68176;45.554;10.220;2023-04-01T03:27:23;98792.59;;;14.52;50.11
78825;BME280;68176;45.554;10.220;2023-04-01T03:29:54;98785.56;;;14.44;50.12
78825;BME280;68176;45.554;10.220;2023-04-01T03:32:23;98792.50;;;14.45;50.02
78825;BME280;68176;45.554;10.220;2023-04-01T03:34:54;98780.03;;;14.39;49.89
78825;BME280;68176;45.554;10.220;2023-04-01T03:37:24;98792.13;;;14.48;50.00
78825;BME280;68176;45.554;10.220;2023-04-01T03:39:54;98783.50;;;14.39;50.15
78825;BME280;68176;45.554;10.220;2023-04-01T03:42:24;98784.94;;;14.42;49.97
78825;BME280;68176;45.554;10.220;2023-04-01T03:44:54;98793.69;;;14.43;50.26
78825;BME280;68176;45.554;10.220;2023-04-01T03:47:24;98797.94;;;14.43;50.03
78825;BME280;68176;45.554;10.220;2023-04-01T03:49:54;98782.38;;;14.34;50.08
78825;BME280;68176;45.554;10.220;2023-04-01T03:52:24;98794.50;;;14.43;49.81
78825;BME280;68176;45.554;10.220;2023-04-01T03:54:54;98804.03;;;14.44;49.87
78825;BME280;68176;45.554;10.220;2023-04-01T03:57:24;98788.94;;;14.38;49.88
78825;BME280;68176;45.554;10.220;2023-04-01T03:59:54;98775.84;;;14.30;49.91
78825;BME280;68176;45.554;10.220;2023-04-01T04:02:24;98784.03;;;14.35;49.79
78825;BME280;68176;45.554;10.220;2023-04-01T04:04:54;98785.69;;;14.36;50.05
78825;BME280;68176;45.554;10.220;2023-04-01T04:07:24;98781.03;;;14.38;49.83
78825;BME280;68176;45.554;10.220;2023-04-01T04:09:54;98789.97;;;14.37;49.79
78825;BME280;68176;45.554;10.220;2023-04-01T04:12:24;98787.66;;;14.34;49.92
78825;BME280;68176;45.554;10.220;2023-04-01T04:14:54;98783.03;;;14.36;49.97
78825;BME280;68176;45.554;10.220;2023-04-01T04:17:24;98786.03;;;14.33;49.75
78825;BME280;68176;45.554;10.220;2023-04-01T04:19:54;98801.16;;;14.39;49.74
78825;BME280;68176;45.554;10.220;2023-04-01T04:22:24;98796.22;;;14.36;49.77
78825;BME280;68176;45.554;10.220;2023-04-01T04:24:54;98797.41;;;14.33;49.80
78825;BME280;68176;45.554;10.220;2023-04-01T04:27:24;98793.28;;;14.31;49.87
78825;BME280;68176;45.554;10.220;2023-04-01T04:29:54;98797.09;;;14.28;49.87
78825;BME280;68176;45.554;10.220;2023-04-01T04:32:24;98776.81;;;14.14;49.52
78825;BME280;68176;45.554;10.220;2023-04-01T04:34:54;98795.03;;;14.24;49.65
78825;BME280;68176;45.554;10.220;2023-04-01T04:37:24;98787.09;;;14.24;49.85
78825;BME280;68176;45.554;10.220;2023-04-01T04:39:54;98793.19;;;14.24;49.76
78825;BME280;68176;45.554;10.220;2023-04-01T04:42:24;98775.28;;;14.20;49.79
78825;BME280;68176;45.554;10.220;2023-04-01T04:44:54;98801.53;;;14.28;49.96
78825;BME280;68176;45.554;10.220;2023-04-01T04:47:24;98811.72;;;14.31;49.71
78825;BME280;68176;45.554;10.220;2023-04-01T04:49:54;98798.03;;;14.21;49.70
78825;BME280;68176;45.554;10.220;2023-04-01T04:52:24;98793.91;;;14.18;50.05
78825;BME280;68176;45.554;10.220;2023-04-01T04:54:54;98794.56;;;14.20;49.66
78825;BME280;68176;45.554;10.220;2023-04-01T04:57:24;98799.28;;;14.25;49.70
78825;BME280;68176;45.554;10.220;2023-04-01T04:59:54;98808.19;;;14.24;49.91
78825;BME280;68176;45.554;10.220;2023-04-01T05:02:24;98819.38;;;14.26;49.86
78825;BME280;68176;45.554;10.220;2023-04-01T05:04:54;98793.53;;;14.07;49.75
78825;BME280;68176;45.554;10.220;2023-04-01T05:07:24;98813.75;;;14.14;49.69
78825;BME280;68176;45.554;10.220;2023-04-01T05:09:54;98827.28;;;14.26;49.60
78825;BME280;68176;45.554;10.220;2023-04-01T05:12:24;98831.56;;;14.27;49.55
78825;BME280;68176;45.554;10.220;2023-04-01T05:14:54;98811.38;;;14.19;49.57
78825;BME280;68176;45.554;10.220;2023-04-01T05:17:24;98797.44;;;14.11;49.97
78825;BME280;68176;45.554;10.220;2023-04-01T05:19:54;98799.72;;;14.14;49.64
78825;BME280;68176;45.554;10.220;2023-04-01T05:22:24;98800.72;;;14.13;49.86
78825;BME280;68176;45.554;10.220;2023-04-01T05:24:54;98815.00;;;14.18;49.76
78825;BME280;68176;45.554;10.220;2023-04-01T05:27:24;98826.81;;;14.22;49.72
78825;BME280;68176;45.554;10.220;2023-04-01T05:29:54;98827.38;;;14.18;49.75
78825;BME280;68176;45.554;10.220;2023-04-01T05:32:24;98823.09;;;14.17;49.72
78825;BME280;68176;45.554;10.220;2023-04-01T05:34:54;98808.38;;;14.08;49.57
78825;BME280;68176;45.554;10.220;2023-04-01T05:37:24;98824.75;;;14.18;49.72
78825;BME280;68176;45.554;10.220;2023-04-01T05:39:54;98825.91;;;14.15;49.72
78825;BME280;68176;45.554;10.220;2023-04-01T05:42:24;98829.72;;;14.13;49.86
78825;BME280;68176;45.554;10.220;2023-04-01T05:44:54;98809.72;;;14.04;49.65
78825;BME280;68176;45.554;10.220;2023-04-01T05:47:24;98824.81;;;14.10;49.92
78825;BME280;68176;45.554;10.220;2023-04-01T05:49:54;98823.53;;;14.06;49.72
78825;BME280;68176;45.554;10.220;2023-04-01T05:52:24;98840.94;;;14.15;49.90
78825;BME280;68176;45.554;10.220;2023-04-01T05:54:54;98820.09;;;14.05;49.49
78825;BME280;68176;45.554;10.220;2023-04-01T05:57:24;98843.25;;;14.10;49.86
78825;BME280;68176;45.554;10.220;2023-04-01T05:59:54;98839.00;;;14.09;49.94
78825;BME280;68176;45.554;10.220;2023-04-01T06:02:24;98848.53;;;14.10;49.86
78825;BME280;68176;45.554;10.220;2023-04-01T06:05:03;98830.16;;;14.02;49.41
78825;BME280;68176;45.554;10.220;2023-04-01T06:07:36;98845.78;;;14.03;49.77
78825;BME280;68176;45.554;10.220;2023-04-01T06:10:13;98847.91;;;14.08;49.65
78825;BME280;68176;45.554;10.220;2023-04-01T06:12:47;98847.25;;;14.06;49.96
78825;BME280;68176;45.554;10.220;2023-04-01T06:15:35;98839.06;;;14.01;50.00
78825;BME280;68176;45.554;10.220;2023-04-01T06:18:27;98851.72;;;14.05;49.86
78825;BME280;68176;45.554;10.220;2023-04-01T06:21:00;98855.34;;;14.04;49.98
78825;BME280;68176;45.554;10.220;2023-04-01T06:26:39;98858.16;;;14.03;49.96
78825;BME280;68176;45.554;10.220;2023-04-01T06:29:25;98860.00;;;14.02;50.09
78825;BME280;68176;45.554;10.220;2023-04-01T06:35:13;98870.69;;;14.01;50.03
78825;BME280;68176;45.554;10.220;2023-04-01T06:51:51;98861.59;;;13.88;50.04
78825;BME280;68176;45.554;10.220;2023-04-01T06:54:32;98871.78;;;13.92;50.06
78825;BME280;68176;45.554;10.220;2023-04-01T06:59:55;98862.28;;;13.82;50.12
78825;BME280;68176;45.554;10.220;2023-04-01T07:05:05;98864.72;;;13.84;49.96
78825;BME280;68176;45.554;10.220;2023-04-01T07:07:42;98859.94;;;13.87;50.17
78825;BME280;68176;45.554;10.220;2023-04-01T07:10:19;98861.81;;;13.79;49.86
78825;BME280;68176;45.554;10.220;2023-04-01T07:12:58;98882.31;;;13.92;50.11
78825;BME280;68176;45.554;10.220;2023-04-01T07:15:36;98877.88;;;13.92;50.04
78825;BME280;68176;45.554;10.220;2023-04-01T07:23:54;98873.31;;;13.86;50.30
78825;BME280;68176;45.554;10.220;2023-04-01T07:26:26;98858.09;;;13.73;50.26
78825;BME280;68176;45.554;10.220;2023-04-01T07:28:52;98878.69;;;13.93;50.12
78825;BME280;68176;45.554;10.220;2023-04-01T07:37:06;98884.75;;;13.93;50.10
78825;BME280;68176;45.554;10.220;2023-04-01T07:39:54;98871.50;;;13.86;49.82
78825;BME280;68176;45.554;10.220;2023-04-01T07:45:14;98883.28;;;13.90;50.08
78825;BME280;68176;45.554;10.220;2023-04-01T07:48:07;98875.38;;;13.90;50.38
78825;BME280;68176;45.554;10.220;2023-04-01T08:09:52;98890.09;;;13.85;50.39
78825;BME280;68176;45.554;10.220;2023-04-01T08:12:31;98886.41;;;13.94;48.00
78825;BME280;68176;45.554;10.220;2023-04-01T08:20:37;98893.56;;;13.85;46.08
78825;BME280;68176;45.554;10.220;2023-04-01T08:23:15;98902.09;;;13.65;46.17
78825;BME280;68176;45.554;10.220;2023-04-01T08:25:50;98873.94;;;13.65;46.75
78825;BME280;68176;45.554;10.220;2023-04-01T08:28:44;98894.75;;;13.83;44.85
78825;BME280;68176;45.554;10.220;2023-04-01T08:31:24;98877.84;;;13.69;44.35
78825;BME280;68176;45.554;10.220;2023-04-01T08:33:54;98878.81;;;13.76;45.84
78825;BME280;68176;45.554;10.220;2023-04-01T08:36:29;98864.63;;;13.77;46.65
78825;BME280;68176;45.554;10.220;2023-04-01T08:47:09;98881.00;;;13.87;47.75
78825;BME280;68176;45.554;10.220;2023-04-01T08:52:52;98884.31;;;13.89;48.24
78825;BME280;68176;45.554;10.220;2023-04-01T08:55:38;98866.72;;;13.82;48.31
78825;BME280;68176;45.554;10.220;2023-04-01T08:58:32;98885.94;;;13.90;48.28
78825;BME280;68176;45.554;10.220;2023-04-01T09:04:14;98882.66;;;13.88;48.25
78825;BME280;68176;45.554;10.220;2023-04-01T09:15:21;98883.59;;;13.96;48.61
78825;BME280;68176;45.554;10.220;2023-04-01T09:20:47;98876.66;;;13.80;48.47
78825;BME280;68176;45.554;10.220;2023-04-01T09:34:30;98877.88;;;13.92;48.89
78825;BME280;68176;45.554;10.220;2023-04-01T09:39:55;98881.44;;;13.99;48.69
78825;BME280;68176;45.554;10.220;2023-04-01T09:42:42;98872.41;;;13.94;48.96
78825;BME280;68176;45.554;10.220;2023-04-01T09:45:28;98870.06;;;13.99;49.23
78825;BME280;68176;45.554;10.220;2023-04-01T09:48:09;98865.97;;;13.96;48.22
78825;BME280;68176;45.554;10.220;2023-04-01T09:50:50;98869.41;;;13.97;48.11
78825;BME280;68176;45.554;10.220;2023-04-01T09:53:44;98877.25;;;14.05;48.05
78825;BME280;68176;45.554;10.220;2023-04-01T09:56:33;98886.78;;;14.06;48.11
78825;BME280;68176;45.554;10.220;2023-04-01T09:59:46;98871.16;;;14.04;48.12
78825;BME280;68176;45.554;10.220;2023-04-01T10:16:31;98846.97;;;14.01;47.27
78825;BME280;68176;45.554;10.220;2023-04-01T10:19:37;98857.66;;;14.22;47.69
78825;BME280;68176;45.554;10.220;2023-04-01T10:28:21;98846.72;;;14.33;47.17
78825;BME280;68176;45.554;10.220;2023-04-01T10:31:18;98851.63;;;14.36;47.11
78825;BME280;68176;45.554;10.220;2023-04-01T10:42:18;98857.38;;;14.54;46.65
78825;BME280;68176;45.554;10.220;2023-04-01T10:48:34;98859.81;;;14.70;46.49
78825;BME280;68176;45.554;10.220;2023-04-01T10:51:04;98855.47;;;14.77;46.48
78825;BME280;68176;45.554;10.220;2023-04-01T10:56:40;98851.72;;;14.86;46.51
78825;BME280;68176;45.554;10.220;2023-04-01T11:22:24;98814.81;;;15.65;46.26
78825;BME280;68176;45.554;10.220;2023-04-01T11:32:57;98783.56;;;15.68;46.38
78825;BME280;68176;45.554;10.220;2023-04-01T11:35:48;98815.53;;;16.01;46.52
78825;BME280;68176;45.554;10.220;2023-04-01T11:41:30;98790.16;;;16.07;46.13
78825;BME280;68176;45.554;10.220;2023-04-01T11:44:25;98820.88;;;16.35;46.06
78825;BME280;68176;45.554;10.220;2023-04-01T11:53:22;98795.00;;;16.65;45.87
78825;BME280;68176;45.554;10.220;2023-04-01T11:59:05;98799.38;;;16.79;45.84
78825;BME280;68176;45.554;10.220;2023-04-01T12:24:28;98772.25;;;17.51;45.79
78825;BME280;68176;45.554;10.220;2023-04-01T12:41:21;98746.97;;;17.88;45.54
78825;BME280;68176;45.554;10.220;2023-04-01T12:52:55;98749.78;;;18.26;44.85
78825;BME280;68176;45.554;10.220;2023-04-01T12:55:41;98721.66;;;18.18;45.39
78825;BME280;68176;45.554;10.220;2023-04-01T13:10:19;98708.47;;;18.62;45.18
78825;BME280;68176;45.554;10.220;2023-04-01T13:18:52;98710.31;;;18.55;45.48
78825;BME280;68176;45.554;10.220;2023-04-01T13:24:56;98711.59;;;18.33;45.84
78825;BME280;68176;45.554;10.220;2023-04-01T13:53:46;98703.28;;;19.12;44.39
78825;BME280;68176;45.554;10.220;2023-04-01T14:02:37;98704.69;;;19.39;40.73
78825;BME280;68176;45.554;10.220;2023-04-01T14:11:13;98675.78;;;19.25;41.84
78825;BME280;68176;45.554;10.220;2023-04-01T14:14:33;98701.44;;;19.44;42.46
78825;BME280;68176;45.554;10.220;2023-04-01T14:25:48;98691.28;;;19.28;42.56
78825;BME280;68176;45.554;10.220;2023-04-01T14:34:29;98682.91;;;18.99;43.42
78825;BME280;68176;45.554;10.220;2023-04-01T14:50:44;98672.50;;;18.60;44.35
78825;BME280;68176;45.554;10.220;2023-04-01T14:53:24;98673.53;;;18.59;44.64
78825;BME280;68176;45.554;10.220;2023-04-01T14:55:59;98671.31;;;18.56;44.18
78825;BME280;68176;45.554;10.220;2023-04-01T14:58:44;98676.63;;;18.56;44.66
78825;BME280;68176;45.554;10.220;2023-04-01T15:01:47;98671.31;;;18.56;44.56
78825;BME280;68176;45.554;10.220;2023-04-01T15:04:24;98678.84;;;18.59;44.38
78825;BME280;68176;45.554;10.220;2023-04-01T15:09:57;98668.97;;;18.66;44.13
78825;BME280;68176;45.554;10.220;2023-04-01T15:12:42;98676.09;;;18.72;44.11
78825;BME280;68176;45.554;10.220;2023-04-01T15:21:01;98663.41;;;18.81;44.24
78825;BME280;68176;45.554;10.220;2023-04-01T15:26:11;98658.88;;;18.88;44.26
78825;BME280;68176;45.554;10.220;2023-04-01T15:28:53;98651.09;;;18.86;43.92
78825;BME280;68176;45.554;10.220;2023-04-01T15:31:40;98659.66;;;18.88;44.27
78825;BME280;68176;45.554;10.220;2023-04-01T15:37:05;98652.13;;;18.85;44.00
78825;BME280;68176;45.554;10.220;2023-04-01T15:47:58;98645.28;;;18.71;44.54
78825;BME280;68176;45.554;10.220;2023-04-01T16:04:15;98638.22;;;18.45;45.45
78825;BME280;68176;45.554;10.220;2023-04-01T16:09:43;98638.25;;;18.39;45.68
78825;BME280;68176;45.554;10.220;2023-04-01T16:12:19;98635.63;;;18.32;45.96
78825;BME280;68176;45.554;10.220;2023-04-01T16:15:09;98643.16;;;18.35;45.91
78825;BME280;68176;45.554;10.220;2023-04-01T16:20:21;98630.16;;;18.27;45.68
78825;BME280;68176;45.554;10.220;2023-04-01T16:23:02;98636.28;;;18.28;45.79
78825;BME280;68176;45.554;10.220;2023-04-01T16:25:38;98630.56;;;18.24;45.71
78825;BME280;68176;45.554;10.220;2023-04-01T16:31:09;98635.91;;;18.18;45.87
78825;BME280;68176;45.554;10.220;2023-04-01T16:33:56;98633.03;;;18.19;46.03
78825;BME280;68176;45.554;10.220;2023-04-01T16:36:36;98628.53;;;18.20;46.49
78825;BME280;68176;45.554;10.220;2023-04-01T16:47:21;98630.63;;;18.11;46.22
78825;BME280;68176;45.554;10.220;2023-04-01T16:49:56;98629.78;;;18.10;45.71
78825;BME280;68176;45.554;10.220;2023-04-01T16:52:54;98629.41;;;18.07;45.57
78825;BME280;68176;45.554;10.220;2023-04-01T16:55:34;98627.97;;;18.04;46.03
78825;BME280;68176;45.554;10.220;2023-04-01T16:58:00;98622.88;;;18.03;46.18
78825;BME280;68176;45.554;10.220;2023-04-01T17:00:49;98620.44;;;18.01;45.92
78825;BME280;68176;45.554;10.220;2023-04-01T17:03:22;98620.44;;;18.01;46.10
78825;BME280;68176;45.554;10.220;2023-04-01T17:06:00;98613.50;;;18.00;46.44
78825;BME280;68176;45.554;10.220;2023-04-01T17:08:30;98631.47;;;17.98;46.60
78825;BME280;68176;45.554;10.220;2023-04-01T17:16:20;98626.78;;;17.94;46.40
78825;BME280;68176;45.554;10.220;2023-04-01T17:43:42;98650.66;;;17.87;47.25
78825;BME280;68176;45.554;10.220;2023-04-01T17:50:01;98647.03;;;17.82;47.44
78825;BME280;68176;45.554;10.220;2023-04-01T17:57:59;98656.81;;;17.81;47.12
78825;BME280;68176;45.554;10.220;2023-04-01T18:00:27;98662.53;;;17.78;46.58
78825;BME280;68176;45.554;10.220;2023-04-01T18:08:54;98662.94;;;17.75;47.23
78825;BME280;68176;45.554;10.220;2023-04-01T18:19:58;98671.31;;;17.72;46.93
78825;BME280;68176;45.554;10.220;2023-04-01T18:22:47;98680.09;;;17.73;47.55
78825;BME280;68176;45.554;10.220;2023-04-01T18:25:24;98674.38;;;17.69;47.28
78825;BME280;68176;45.554;10.220;2023-04-01T18:28:25;98678.66;;;17.70;47.38
78825;BME280;68176;45.554;10.220;2023-04-01T18:38:54;98692.34;;;17.67;47.62
78825;BME280;68176;45.554;10.220;2023-04-01T18:49:59;98704.78;;;17.60;47.54
78825;BME280;68176;45.554;10.220;2023-04-01T18:52:36;98708.25;;;17.61;47.84
78825;BME280;68176;45.554;10.220;2023-04-01T18:57:49;98713.13;;;17.57;47.74
78825;BME280;68176;45.554;10.220;2023-04-01T19:00:48;98725.38;;;17.58;47.65
78825;BME280;68176;45.554;10.220;2023-04-01T19:03:20;98726.59;;;17.55;47.67
78825;BME280;68176;45.554;10.220;2023-04-01T19:05:47;98726.78;;;17.54;47.34
78825;BME280;68176;45.554;10.220;2023-04-01T19:08:32;98726.16;;;17.52;47.43
78825;BME280;68176;45.554;10.220;2023-04-01T19:14:17;98723.53;;;17.52;47.74
78825;BME280;68176;45.554;10.220;2023-04-01T19:22:13;98740.84;;;17.48;47.84
78825;BME280;68176;45.554;10.220;2023-04-01T19:27:53;98740.03;;;17.47;47.56
78825;BME280;68176;45.554;10.220;2023-04-01T19:33:33;98735.94;;;17.45;47.76
78825;BME280;68176;45.554;10.220;2023-04-01T19:36:20;98738.59;;;17.45;47.73
78825;BME280;68176;45.554;10.220;2023-04-01T19:46:53;98733.06;;;17.40;47.57
78825;BME280;68176;45.554;10.220;2023-04-01T19:57:56;98736.34;;;17.35;47.40
78825;BME280;68176;45.554;10.220;2023-04-01T20:00:37;98733.09;;;17.33;47.06
78825;BME280;68176;45.554;10.220;2023-04-01T20:03:48;98733.09;;;17.33;47.40
78825;BME280;68176;45.554;10.220;2023-04-01T20:06:23;98737.34;;;17.34;47.52
78825;BME280;68176;45.554;10.220;2023-04-01T20:14:48;98738.75;;;17.30;47.28
78825;BME280;68176;45.554;10.220;2023-04-01T20:17:21;98726.56;;;17.29;47.44
78825;BME280;68176;45.554;10.220;2023-04-01T20:19:55;98725.72;;;17.29;47.62
78825;BME280;68176;45.554;10.220;2023-04-01T20:24:53;98733.09;;;17.27;47.47
78825;BME280;68176;45.554;10.220;2023-04-01T20:27:33;98731.22;;;17.27;47.48
78825;BME280;68176;45.554;10.220;2023-04-01T20:30:19;98735.72;;;17.27;47.49
78825;BME280;68176;45.554;10.220;2023-04-01T20:35:59;98730.19;;;17.22;47.23
78825;BME280;68176;45.554;10.220;2023-04-01T20:41:49;98741.84;;;17.21;47.42
78825;BME280;68176;45.554;10.220;2023-04-01T20:44:42;98745.50;;;17.20;47.66
78825;BME280;68176;45.554;10.220;2023-04-01T21:01:09;98781.16;;;17.17;47.64
78825;BME280;68176;45.554;10.220;2023-04-01T21:06:27;98789.50;;;17.14;47.49
78825;BME280;68176;45.554;10.220;2023-04-01T21:23:20;98819.84;;;17.12;47.40
78825;BME280;68176;45.554;10.220;2023-04-01T21:26:03;98828.84;;;17.11;47.54
78825;BME280;68176;45.554;10.220;2023-04-01T21:31:34;98827.19;;;17.10;47.52
78825;BME280;68176;45.554;10.220;2023-04-01T21:48:57;98834.91;;;17.04;47.62
78825;BME280;68176;45.554;10.220;2023-04-01T22:04:56;98835.72;;;16.98;47.45
78825;BME280;68176;45.554;10.220;2023-04-01T22:10:47;98822.88;;;16.95;47.56
78825;BME280;68176;45.554;10.220;2023-04-01T22:13:22;98821.00;;;16.96;47.49
78825;BME280;68176;45.554;10.220;2023-04-01T22:18:47;98824.69;;;16.95;47.53
78825;BME280;68176;45.554;10.220;2023-04-01T22:22:25;98816.94;;;16.93;47.48
78825;BME280;68176;45.554;10.220;2023-04-01T22:27:53;98820.59;;;16.92;47.53
78825;BME280;68176;45.554;10.220;2023-04-01T22:30:28;98818.97;;;16.91;47.81
78825;BME280;68176;45.554;10.220;2023-04-01T22:36:19;98829.56;;;16.91;47.62
78825;BME280;68176;45.554;10.220;2023-04-01T22:39:11;98817.72;;;16.87;47.74
78825;BME280;68176;45.554;10.220;2023-04-01T22:44:15;98834.44;;;16.88;47.56
78825;BME280;68176;45.554;10.220;2023-04-01T22:47:18;98832.59;;;16.88;47.61
78825;BME280;68176;45.554;10.220;2023-04-01T22:49:50;98839.72;;;16.88;47.24
78825;BME280;68176;45.554;10.220;2023-04-01T22:52:23;98837.25;;;16.86;47.67
78825;BME280;68176;45.554;10.220;2023-04-01T22:54:56;98835.66;;;16.85;47.61
78825;BME280;68176;45.554;10.220;2023-04-01T22:57:52;98842.56;;;16.86;47.64
78825;BME280;68176;45.554;10.220;2023-04-01T23:00:35;98845.22;;;16.86;47.65
78825;BME280;68176;45.554;10.220;2023-04-01T23:03:22;98845.22;;;16.86;47.50
78825;BME280;68176;45.554;10.220;2023-04-01T23:05:56;98836.66;;;16.84;47.75
78825;BME280;68176;45.554;10.220;2023-04-01T23:11:02;98847.47;;;16.83;47.80
78825;BME280;68176;45.554;10.220;2023-04-01T23:13:34;98845.00;;;16.81;47.67
78825;BME280;68176;45.554;10.220;2023-04-01T23:16:03;98850.28;;;16.81;47.73
78825;BME280;68176;45.554;10.220;2023-04-01T23:18:36;98846.81;;;16.81;47.80